createdAt,value
2023-05-01T00:00:03.555Z,99241.91
2023-05-01T00:02:32.295Z,99231.06
2023-05-01T00:04:59.527Z,99274.94
2023-05-01T00:07:29.473Z,99242.97
2023-05-01T00:09:59.782Z,99275.41
2023-05-01T00:12:27.061Z,99251.81
2023-05-01T00:14:54.458Z,99213.53
2023-05-01T00:17:22.924Z,99279.66
2023-05-01T00:19:55.836Z,99267.38
2023-05-01T00:22:22.803Z,99286.81
2023-05-01T00:24:50.329Z,99254.22
2023-05-01T00:27:17.199Z,99215.66
2023-05-01T00:29:44.075Z,99273.03
2023-05-01T00:32:11.131Z,99293.19
2023-05-01T00:34:38.356Z,99284.59
2023-05-01T00:37:05.540Z,99159.03
2023-05-01T00:39:32.844Z,99252.75
2023-05-01T00:41:59.656Z,99272.13
2023-05-01T00:44:26.629Z,99316.47
2023-05-01T00:46:54.125Z,99317.38
2023-05-01T00:49:21.154Z,99232.09
2023-05-01T00:51:53.036Z,99273.66
2023-05-01T00:54:21.086Z,99296.34
2023-05-01T00:56:48.117Z,99296.56
2023-05-01T00:59:15.326Z,99218.47
2023-05-01T01:01:42.627Z,99320.47
2023-05-01T01:04:10.044Z,99310.06
2023-05-01T01:06:54.416Z,99299.94
2023-05-01T01:09:47.769Z,99307.22
2023-05-01T01:12:29.952Z,99323.16
2023-05-01T01:15:21.178Z,99354.09
2023-05-01T01:17:56.947Z,99301.50
2023-05-01T01:20:29.838Z,99334.19
2023-05-01T01:23:34.095Z,99341.81
2023-05-01T01:26:38.640Z,99337.84
2023-05-01T01:29:26.882Z,99342.84
2023-05-01T01:32:27.672Z,99350.75
2023-05-01T01:35:00.482Z,99267.25
2023-05-01T01:37:41.571Z,99251.31
2023-05-01T01:40:11.611Z,99349.22
2023-05-01T01:42:44.930Z,99268.59
2023-05-01T01:45:19.273Z,99309.78
2023-05-01T01:47:48.251Z,99308.81
2023-05-01T01:50:21.334Z,99318.63
2023-05-01T01:52:50.524Z,99224.84
2023-05-01T01:55:24.076Z,99316.75
2023-05-01T01:57:52.537Z,99387.56
2023-05-01T02:00:20.736Z,99283.31
2023-05-01T02:02:52.385Z,99373.38
2023-05-01T02:05:20.728Z,99281.66
2023-05-01T02:07:51.328Z,99306.63
2023-05-01T02:10:19.916Z,99372.47
2023-05-01T02:12:49.190Z,99390.88
2023-05-01T02:15:19.081Z,99356.94
2023-05-01T02:17:46.322Z,99309.97
2023-05-01T02:20:14.012Z,99366.34
2023-05-01T02:22:43.528Z,99403.97
2023-05-01T02:25:12.422Z,99413.72
2023-05-01T02:28:02.693Z,99375.56
2023-05-01T02:30:29.727Z,99407.03
2023-05-01T02:32:57.691Z,99323.59
2023-05-01T02:35:24.634Z,99414.19
2023-05-01T02:37:51.538Z,99414.53
2023-05-01T02:40:18.811Z,99365.19
2023-05-01T02:42:48.074Z,99413.75
2023-05-01T02:45:20.378Z,99413.56
2023-05-01T02:47:52.912Z,99436.19
2023-05-01T02:50:21.908Z,99369.44
2023-05-01T02:52:49.948Z,99352.56
2023-05-01T02:55:28.157Z,99386.16
2023-05-01T02:57:59.267Z,99412.66
2023-05-01T03:00:27.223Z,99413.91
2023-05-01T03:02:54.751Z,99427.03
2023-05-01T03:05:21.740Z,99371.03
2023-05-01T03:07:48.662Z,99448.09
2023-05-01T03:10:15.656Z,99304.38
2023-05-01T03:12:42.585Z,99455.06
2023-05-01T03:15:09.815Z,99458.41
2023-05-01T03:17:36.696Z,99447.50
2023-05-01T03:20:06.298Z,99453.31
2023-05-01T03:22:33.272Z,99429.28
2023-05-01T03:25:00.790Z,99459.38
2023-05-01T03:27:27.866Z,99416.03
2023-05-01T03:29:55.143Z,99451.44
2023-05-01T03:32:23.034Z,99469.00
2023-05-01T03:34:50.860Z,99467.88
2023-05-01T03:37:20.375Z,99471.09
2023-05-01T03:39:47.402Z,99386.78
2023-05-01T03:42:29.847Z,99445.03
2023-05-01T03:45:01.652Z,99475.19
2023-05-01T03:47:29.876Z,99253.25
2023-05-01T03:49:56.980Z,99488.91
2023-05-01T03:52:24.236Z,99426.00
2023-05-01T03:54:54.203Z,99470.25
2023-05-01T03:57:26.070Z,99468.56
2023-05-01T03:59:53.481Z,99491.94
2023-05-01T04:02:21.439Z,99434.16
2023-05-01T04:04:49.991Z,99478.22
2023-05-01T04:07:17.008Z,99500.38
2023-05-01T04:09:48.541Z,99448.25
2023-05-01T04:12:15.908Z,99499.31
2023-05-01T04:14:44.178Z,99438.34
2023-05-01T04:17:11.592Z,99412.41
2023-05-01T04:19:40.029Z,99414.47
2023-05-01T04:22:07.033Z,99472.09
2023-05-01T04:24:36.469Z,99494.88
2023-05-01T04:27:06.026Z,99531.47
2023-05-01T04:29:35.898Z,99504.44
2023-05-01T04:32:05.217Z,99532.56
2023-05-01T04:34:32.198Z,99422.56
2023-05-01T04:36:59.057Z,99531.38
2023-05-01T04:39:26.132Z,99483.50
2023-05-01T04:41:53.639Z,99527.88
2023-05-01T04:44:24.901Z,99444.91
2023-05-01T04:46:52.368Z,99327.16
2023-05-01T04:49:19.232Z,99529.94
2023-05-01T04:51:47.203Z,99472.50
2023-05-01T04:54:16.028Z,99524.88
2023-05-01T04:56:46.718Z,99478.44
2023-05-01T04:59:15.861Z,99547.09
2023-05-01T05:01:49.152Z,99417.09
2023-05-01T05:04:16.654Z,99538.34
2023-05-01T05:06:43.596Z,99523.59
2023-05-01T05:09:17.460Z,99391.56
2023-05-01T05:11:51.303Z,99531.13
2023-05-01T05:14:22.965Z,99550.13
2023-05-01T05:16:51.816Z,99553.69
2023-05-01T05:19:19.032Z,99509.38
2023-05-01T05:21:49.080Z,99494.59
2023-05-01T05:24:17.596Z,99516.84
2023-05-01T05:26:48.082Z,99557.31
2023-05-01T05:29:15.752Z,99556.84
2023-05-01T05:31:49.440Z,99560.09
2023-05-01T05:34:17.476Z,99429.72
2023-05-01T05:36:44.337Z,99512.59
2023-05-01T05:39:16.792Z,99563.34
2023-05-01T05:41:47.020Z,99541.38
2023-05-01T05:44:14.593Z,99559.25
2023-05-01T05:46:45.985Z,99533.38
2023-05-01T05:49:17.937Z,99562.50
2023-05-01T05:51:44.763Z,99544.56
2023-05-01T05:54:11.609Z,99576.22
2023-05-01T05:56:39.365Z,99517.25
2023-05-01T05:59:08.998Z,99587.53
2023-05-01T06:01:37.823Z,99585.00
2023-05-01T06:04:04.657Z,99586.00
2023-05-01T06:06:34.206Z,99562.44
2023-05-01T06:09:04.181Z,99592.09
2023-05-01T06:11:31.054Z,99493.47
2023-05-01T06:14:03.476Z,99578.66
2023-05-01T06:16:30.638Z,99597.09
2023-05-01T06:19:00.312Z,99586.72
2023-05-01T06:21:27.112Z,99596.63
2023-05-01T06:23:54.120Z,99606.91
2023-05-01T06:26:28.537Z,99598.56
2023-05-01T06:28:57.876Z,99515.66
2023-05-01T06:31:30.635Z,99529.53
2023-05-01T06:33:57.893Z,99456.91
2023-05-01T06:36:46.169Z,99610.72
2023-05-01T06:39:15.508Z,99614.97
2023-05-01T06:41:42.559Z,99610.84
2023-05-01T06:44:09.459Z,99609.41
2023-05-01T06:46:40.589Z,99608.38
2023-05-01T06:49:09.439Z,99565.78
2023-05-01T06:51:36.519Z,99611.47
2023-05-01T06:54:07.870Z,99490.56
2023-05-01T06:56:36.150Z,99618.94
2023-05-01T06:59:03.699Z,99563.56
2023-05-01T07:01:36.616Z,99577.47
2023-05-01T07:04:04.088Z,99607.31
2023-05-01T07:06:32.333Z,99628.63
2023-05-01T07:09:03.615Z,99629.91
2023-05-01T07:11:36.745Z,99555.97
2023-05-01T07:14:06.309Z,99635.03
2023-05-01T07:16:33.631Z,99633.41
2023-05-01T07:19:00.538Z,99596.44
2023-05-01T07:21:29.802Z,99637.09
2023-05-01T07:23:59.647Z,99636.44
2023-05-01T07:26:29.298Z,99621.97
2023-05-01T07:28:56.073Z,99615.56
2023-05-01T07:31:23.440Z,99615.66
2023-05-01T07:33:51.113Z,99644.06
2023-05-01T07:36:20.473Z,99635.31
2023-05-01T07:38:50.037Z,99626.78
2023-05-01T07:41:17.165Z,99624.19
2023-05-01T07:43:44.029Z,99615.47
2023-05-01T07:46:11.517Z,99630.03
2023-05-01T07:48:39.159Z,99647.28
2023-05-01T07:51:06.020Z,99640.44
2023-05-01T07:53:35.849Z,99640.00
2023-05-01T07:56:08.310Z,99578.72
2023-05-01T07:58:40.998Z,99648.91
2023-05-01T08:01:09.288Z,99625.31
2023-05-01T08:03:38.555Z,99592.56
2023-05-01T08:06:09.672Z,99644.25
2023-05-01T08:08:37.087Z,99485.41
2023-05-01T08:11:04.135Z,99644.84
2023-05-01T08:13:31.039Z,99647.25
2023-05-01T08:16:02.663Z,99587.59
2023-05-01T08:18:30.488Z,99612.47
2023-05-01T08:21:00.118Z,99644.22
2023-05-01T08:23:26.979Z,99606.00
2023-05-01T08:25:53.842Z,99646.06
2023-05-01T08:28:26.367Z,99593.03
2023-05-01T08:30:55.565Z,99590.63
2023-05-01T08:33:24.789Z,99558.94
2023-05-01T08:35:52.682Z,99623.91
2023-05-01T08:38:21.817Z,99637.97
2023-05-01T08:40:56.972Z,99637.72
2023-05-01T08:43:25.646Z,99626.47
2023-05-01T08:45:55.311Z,99621.19
2023-05-01T08:48:23.876Z,99599.13
2023-05-01T08:50:52.156Z,99605.97
2023-05-01T08:53:22.268Z,99579.72
2023-05-01T08:55:50.707Z,99574.53
2023-05-01T08:58:19.656Z,99645.75
2023-05-01T09:00:47.895Z,99636.94
2023-05-01T09:03:17.959Z,99653.91
2023-05-01T09:05:46.562Z,99567.13
2023-05-01T09:08:13.760Z,99625.06
2023-05-01T09:10:48.531Z,99616.75
2023-05-01T09:13:16.110Z,99651.44
2023-05-01T09:15:44.111Z,99651.66
2023-05-01T09:18:11.744Z,99589.09
2023-05-01T09:20:38.986Z,99630.50
2023-05-01T09:23:06.567Z,99657.13
2023-05-01T09:25:33.389Z,99664.31
2023-05-01T09:28:00.335Z,99647.88
2023-05-01T09:30:38.165Z,99660.69
2023-05-01T09:33:06.219Z,99647.81
2023-05-01T09:35:34.142Z,99644.53
2023-05-01T09:38:02.672Z,99662.94
2023-05-01T09:40:30.744Z,99658.19
2023-05-01T09:42:57.995Z,99649.94
2023-05-01T09:45:26.755Z,99651.72
2023-05-01T09:48:10.808Z,99653.13
2023-05-01T09:50:38.609Z,99650.50
2023-05-01T09:53:06.732Z,99487.91
2023-05-01T09:55:34.792Z,99626.50
2023-05-01T09:58:02.166Z,99652.19
2023-05-01T10:00:31.922Z,99651.47
2023-05-01T10:03:12.560Z,99653.13
2023-05-01T10:05:45.157Z,99652.88
2023-05-01T10:08:14.982Z,99653.13
2023-05-01T10:10:45.067Z,99655.50
2023-05-01T10:13:22.132Z,99658.63
2023-05-01T10:15:53.599Z,99650.97
2023-05-01T10:18:24.144Z,99641.63
2023-05-01T10:20:51.613Z,99586.72
2023-05-01T10:23:19.050Z,99622.13
2023-05-01T10:25:53.867Z,99647.91
2023-05-01T10:28:21.874Z,99633.09
2023-05-01T10:30:49.565Z,99645.69
2023-05-01T10:33:16.993Z,99595.44
2023-05-01T10:35:50.206Z,99369.22
2023-05-01T10:38:26.063Z,99628.78
2023-05-01T10:40:55.658Z,99609.28
2023-05-01T10:43:29.828Z,99636.88
2023-05-01T10:46:19.268Z,99638.19
2023-05-01T10:48:46.110Z,99628.13
2023-05-01T10:51:20.200Z,99637.19
2023-05-01T10:54:15.923Z,99606.50
2023-05-01T10:56:48.037Z,99599.44
2023-05-01T10:59:14.809Z,99614.72
2023-05-01T11:01:45.751Z,99596.06
2023-05-01T11:04:22.023Z,99630.09
2023-05-01T11:07:11.457Z,99629.72
2023-05-01T11:09:43.092Z,99634.84
2023-05-01T11:12:11.872Z,99635.94
2023-05-01T11:14:54.242Z,99634.72
2023-05-01T11:17:39.874Z,99633.53
2023-05-01T11:20:29.246Z,99580.00
2023-05-01T11:22:57.508Z,99631.41
2023-05-01T11:25:33.902Z,99634.06
2023-05-01T11:28:12.568Z,99634.41
2023-05-01T11:30:42.859Z,99627.78
2023-05-01T11:33:12.223Z,99567.06
2023-05-01T11:35:47.555Z,99605.50
2023-05-01T11:38:18.937Z,99568.31
2023-05-01T11:40:46.057Z,99612.16
2023-05-01T11:43:18.874Z,99596.19
2023-05-01T11:45:54.604Z,99618.88
2023-05-01T11:48:22.272Z,99573.69
2023-05-01T11:50:49.934Z,99616.88
2023-05-01T11:53:19.726Z,99617.25
2023-05-01T11:55:52.134Z,99579.91
2023-05-01T11:58:31.931Z,99609.47
2023-05-01T12:00:59.056Z,99571.97
2023-05-01T12:03:26.069Z,99601.06
2023-05-01T12:05:53.105Z,99553.75
2023-05-01T12:08:25.993Z,99609.44
2023-05-01T12:10:57.223Z,99602.34
2023-05-01T12:13:26.108Z,99570.06
2023-05-01T12:16:00.495Z,99591.06
2023-05-01T12:18:27.536Z,99605.41
2023-05-01T12:20:55.338Z,99607.81
2023-05-01T12:23:37.380Z,99549.13
2023-05-01T12:26:20.007Z,99577.03
2023-05-01T12:29:00.562Z,99611.06
2023-05-01T12:31:28.661Z,99578.88
2023-05-01T12:34:06.689Z,99608.59
2023-05-01T12:36:35.780Z,99581.56
2023-05-01T12:39:04.284Z,99616.69
2023-05-01T12:41:45.198Z,99605.13
2023-05-01T12:44:32.597Z,99592.69
2023-05-01T12:47:05.382Z,99585.59
2023-05-01T12:49:32.658Z,99583.84
2023-05-01T12:52:03.570Z,99563.69
2023-05-01T12:54:48.724Z,99602.38
2023-05-01T12:57:16.721Z,99499.84
2023-05-01T12:59:48.148Z,99596.19
2023-05-01T13:02:17.677Z,99579.97
2023-05-01T13:04:45.224Z,99581.56
2023-05-01T13:07:17.911Z,99600.72
2023-05-01T13:09:56.299Z,99592.09
2023-05-01T13:12:24.591Z,99596.72
2023-05-01T13:14:51.704Z,99593.19
2023-05-01T13:17:28.434Z,99581.66
2023-05-01T13:20:07.166Z,99588.00
2023-05-01T13:22:37.317Z,99591.09
2023-05-01T13:25:17.505Z,99605.78
2023-05-01T13:27:49.841Z,99557.63
2023-05-01T13:30:21.854Z,99582.47
2023-05-01T13:32:50.793Z,99567.63
2023-05-01T13:35:27.167Z,99588.66
2023-05-01T13:37:55.610Z,99583.38
2023-05-01T13:40:27.440Z,99582.88
2023-05-01T13:42:58.242Z,99578.41
2023-05-01T13:45:26.324Z,99566.41
2023-05-01T13:47:55.042Z,99584.44
2023-05-01T13:50:22.641Z,99582.91
2023-05-01T13:52:51.218Z,99575.00
2023-05-01T13:55:20.824Z,99562.56
2023-05-01T13:57:50.002Z,99463.91
2023-05-01T14:00:19.304Z,99565.25
2023-05-01T14:02:48.459Z,99582.34
2023-05-01T14:05:29.674Z,99581.28
2023-05-01T14:07:58.518Z,99523.25
2023-05-01T14:10:31.052Z,99543.31
2023-05-01T14:13:00.969Z,99567.03
2023-05-01T14:15:30.684Z,99560.75
2023-05-01T14:18:10.740Z,99519.72
2023-05-01T14:20:49.369Z,99544.78
2023-05-01T14:23:18.344Z,99555.25
2023-05-01T14:25:46.617Z,99574.06
2023-05-01T14:28:14.136Z,99577.25
2023-05-01T14:30:41.931Z,99563.19
2023-05-01T14:33:13.587Z,99567.69
2023-05-01T14:35:48.890Z,99581.66
2023-05-01T14:38:19.351Z,99572.38
2023-05-01T14:40:47.030Z,99582.31
2023-05-01T14:43:17.153Z,99515.47
2023-05-01T14:45:46.172Z,99578.22
2023-05-01T14:48:27.839Z,99556.75
2023-05-01T14:50:55.083Z,99559.72
2023-05-01T14:53:24.247Z,99577.03
2023-05-01T14:55:54.191Z,99576.50
2023-05-01T14:58:21.053Z,99575.22
2023-05-01T15:00:47.867Z,99581.47
2023-05-01T15:03:14.733Z,99524.03
2023-05-01T15:05:46.147Z,99591.00
2023-05-01T15:08:15.635Z,99586.72
2023-05-01T15:10:43.529Z,99565.22
2023-05-01T15:13:10.649Z,99595.19
2023-05-01T15:15:37.751Z,99543.81
2023-05-01T15:18:05.938Z,99590.47
2023-05-01T15:20:33.157Z,99528.44
2023-05-01T15:22:59.938Z,99582.28
2023-05-01T15:25:26.871Z,99458.44
2023-05-01T15:27:53.870Z,99586.91
2023-05-01T15:30:23.869Z,99590.50
2023-05-01T15:32:55.536Z,99583.56
2023-05-01T15:35:23.647Z,99573.81
2023-05-01T15:37:50.754Z,99567.53
2023-05-01T15:40:17.676Z,99576.31
2023-05-01T15:42:48.920Z,99571.81
2023-05-01T15:45:15.839Z,99540.66
2023-05-01T15:47:42.846Z,99563.25
2023-05-01T15:50:14.887Z,99512.88
2023-05-01T15:52:46.774Z,99581.91
2023-05-01T15:55:14.818Z,99567.75
2023-05-01T15:57:48.688Z,99562.84
2023-05-01T16:00:19.431Z,99574.03
2023-05-01T16:02:47.892Z,99575.75
2023-05-01T16:05:18.636Z,99571.94
2023-05-01T16:07:46.164Z,99585.97
2023-05-01T16:10:12.984Z,99580.75
2023-05-01T16:12:39.888Z,99545.47
2023-05-01T16:15:07.262Z,99595.13
2023-05-01T16:17:43.685Z,99375.91
2023-05-01T16:20:13.120Z,99538.06
2023-05-01T16:22:43.593Z,99568.78
2023-05-01T16:25:14.101Z,99587.94
2023-05-01T16:27:44.309Z,99550.59
2023-05-01T16:30:16.832Z,99578.47
2023-05-01T16:32:49.597Z,99590.34
2023-05-01T16:35:24.506Z,99572.94
2023-05-01T16:37:51.528Z,99582.63
2023-05-01T16:40:21.451Z,99580.25
2023-05-01T16:42:52.283Z,99593.00
2023-05-01T16:45:22.392Z,99571.09
2023-05-01T16:47:51.617Z,99568.31
2023-05-01T16:50:22.007Z,99593.94
2023-05-01T16:52:49.174Z,99593.75
2023-05-01T16:55:18.247Z,99521.94
2023-05-01T16:57:48.015Z,99542.47
2023-05-01T17:00:15.924Z,99590.47
2023-05-01T17:02:49.035Z,99605.63
2023-05-01T17:05:21.546Z,99578.44
2023-05-01T17:07:48.375Z,99602.44
2023-05-01T17:10:15.724Z,99587.94
2023-05-01T17:12:45.434Z,99563.31
2023-05-01T17:15:15.203Z,99604.13
2023-05-01T17:17:45.235Z,99543.63
2023-05-01T17:20:12.627Z,99591.69
2023-05-01T17:22:41.980Z,99578.41
2023-05-01T17:25:11.672Z,99604.03
2023-05-01T17:27:40.936Z,99606.78
2023-05-01T17:30:09.984Z,99593.66
2023-05-01T17:32:43.444Z,99593.38
2023-05-01T17:35:14.064Z,99584.00
2023-05-01T17:37:41.509Z,99619.03
2023-05-01T17:40:11.140Z,99607.66
2023-05-01T17:42:38.000Z,99602.44
2023-05-01T17:45:07.461Z,99604.66
2023-05-01T17:47:37.454Z,99588.59
2023-05-01T17:50:11.726Z,99628.00
2023-05-01T17:52:46.732Z,99638.50
2023-05-01T17:55:18.026Z,99601.28
2023-05-01T17:57:46.030Z,99590.91
2023-05-01T18:00:13.420Z,99621.22
2023-05-01T18:02:44.624Z,99627.28
2023-05-01T18:05:14.906Z,99583.34
2023-05-01T18:07:41.729Z,99549.72
2023-05-01T18:10:11.429Z,99597.00
2023-05-01T18:12:45.678Z,99651.84
2023-05-01T18:15:12.618Z,99656.44
2023-05-01T18:17:39.507Z,99595.00
2023-05-01T18:20:09.257Z,99654.63
2023-05-01T18:22:36.016Z,99662.03
2023-05-01T18:25:07.161Z,99643.19
2023-05-01T18:27:36.333Z,99664.50
2023-05-01T18:30:11.603Z,99578.84
2023-05-01T18:32:48.221Z,99588.63
2023-05-01T18:35:17.117Z,99679.75
2023-05-01T18:37:53.218Z,99674.66
2023-05-01T18:40:20.204Z,99664.13
2023-05-01T18:42:48.160Z,99669.44
2023-05-01T18:45:14.938Z,99672.47
2023-05-01T18:47:41.732Z,99672.25
2023-05-01T18:50:10.189Z,99666.41
2023-05-01T18:52:37.322Z,99625.06
2023-05-01T18:55:10.110Z,99675.69
2023-05-01T18:57:41.233Z,99670.47
2023-05-01T19:00:21.377Z,99615.16
2023-05-01T19:02:55.460Z,99658.06
2023-05-01T19:05:32.686Z,99645.91
2023-05-01T19:08:06.979Z,99669.94
2023-05-01T19:10:37.333Z,99671.41
2023-05-01T19:13:05.931Z,99694.00
2023-05-01T19:15:32.747Z,99649.00
2023-05-01T19:17:59.678Z,99677.44
2023-05-01T19:20:29.508Z,99646.94
2023-05-01T19:22:56.439Z,99689.09
2023-05-01T19:25:26.205Z,99660.25
2023-05-01T19:27:56.088Z,99684.94
2023-05-01T19:30:23.157Z,99637.00
2023-05-01T19:32:50.448Z,99691.50
2023-05-01T19:35:17.282Z,99695.00
2023-05-01T19:37:46.566Z,99660.69
2023-05-01T19:40:15.914Z,99569.34
2023-05-01T19:42:46.136Z,99608.25
2023-05-01T19:45:17.711Z,99639.00
2023-05-01T19:47:48.777Z,99668.31
2023-05-01T19:50:27.410Z,99684.31
2023-05-01T19:52:59.183Z,99628.75
2023-05-01T19:55:26.351Z,99683.19
2023-05-01T19:57:55.717Z,99637.16
2023-05-01T20:00:29.355Z,99612.78
2023-05-01T20:02:56.461Z,99556.09
2023-05-01T20:05:30.953Z,99632.47
2023-05-01T20:08:03.381Z,99667.16
2023-05-01T20:10:32.448Z,99694.63
2023-05-01T20:13:03.721Z,99596.56
2023-05-01T20:15:35.682Z,99644.94
2023-05-01T20:18:02.614Z,99692.13
2023-05-01T20:20:35.119Z,99696.59
2023-05-01T20:23:16.460Z,99644.19
2023-05-01T20:25:43.769Z,99695.13
2023-05-01T20:28:12.920Z,99692.63
2023-05-01T20:30:45.945Z,99689.19
2023-05-01T20:33:13.993Z,99678.81
2023-05-01T20:35:51.408Z,99661.81
2023-05-01T20:38:19.490Z,99611.22
2023-05-01T20:41:00.993Z,99686.31
2023-05-01T20:43:33.073Z,99659.78
2023-05-01T20:46:02.315Z,99680.19
2023-05-01T20:48:34.971Z,99658.03
2023-05-01T20:51:07.814Z,99670.09
2023-05-01T20:53:37.343Z,99686.94
2023-05-01T20:56:04.293Z,99687.31
2023-05-01T20:58:37.011Z,99688.44
2023-05-01T21:01:11.506Z,99602.47
2023-05-01T21:03:39.577Z,99688.88
2023-05-01T21:06:15.930Z,99679.50
2023-05-01T21:08:50.567Z,99689.50
2023-05-01T21:11:32.245Z,99363.31
2023-05-01T21:13:58.952Z,99706.94
2023-05-01T21:16:27.600Z,99689.97
2023-05-01T21:18:54.705Z,99686.31
2023-05-01T21:21:21.479Z,99691.22
2023-05-01T21:23:48.977Z,99693.97
2023-05-01T21:26:21.015Z,99685.38
2023-05-01T21:28:47.954Z,99668.09
2023-05-01T21:31:18.014Z,99602.03
2023-05-01T21:33:51.155Z,99692.47
2023-05-01T21:36:21.079Z,99651.94
2023-05-01T21:38:50.493Z,99545.16
2023-05-01T21:41:23.189Z,99701.16
2023-05-01T21:43:55.122Z,99697.75
2023-05-01T21:46:30.451Z,99708.53
2023-05-01T21:49:02.673Z,99662.63
2023-05-01T21:51:29.549Z,99589.66
2023-05-01T21:54:00.146Z,99727.19
2023-05-01T21:56:26.974Z,99686.25
2023-05-01T21:59:00.138Z,99733.06
2023-05-01T22:01:27.031Z,99705.13
2023-05-01T22:03:54.368Z,99650.28
2023-05-01T22:06:24.246Z,99702.13
2023-05-01T22:08:53.753Z,99719.84
2023-05-01T22:11:24.170Z,99673.88
2023-05-01T22:13:51.044Z,99722.34
2023-05-01T22:16:17.790Z,99716.41
2023-05-01T22:18:45.537Z,99701.94
2023-05-01T22:21:12.372Z,99685.47
2023-05-01T22:23:39.136Z,99723.53
2023-05-01T22:26:05.907Z,99723.47
2023-05-01T22:28:32.875Z,99732.91
2023-05-01T22:31:00.137Z,99736.56
2023-05-01T22:33:26.971Z,99632.84
2023-05-01T22:35:53.710Z,99687.38
2023-05-01T22:38:23.434Z,99706.41
2023-05-01T22:40:50.208Z,99663.88
2023-05-01T22:43:16.971Z,99704.19
2023-05-01T22:45:43.698Z,99727.94
2023-05-01T22:48:10.702Z,99665.50
2023-05-01T22:50:37.509Z,99656.63
2023-05-01T22:53:04.288Z,99738.91
2023-05-01T22:55:31.149Z,99750.19
2023-05-01T22:57:57.967Z,99716.09
2023-05-01T23:00:25.016Z,99728.72
2023-05-01T23:02:53.724Z,99739.06
2023-05-01T23:05:20.511Z,99579.50
2023-05-01T23:07:48.019Z,99627.81
2023-05-01T23:10:15.435Z,99735.78
2023-05-01T23:12:43.825Z,99689.78
2023-05-01T23:15:23.642Z,99692.06
2023-05-01T23:17:53.023Z,99741.50
2023-05-01T23:20:23.919Z,99740.00
2023-05-01T23:22:51.577Z,99739.09
2023-05-01T23:25:25.152Z,99717.47
2023-05-01T23:27:55.000Z,99670.91
2023-05-01T23:30:22.452Z,99678.75
2023-05-01T23:32:52.046Z,99657.28
2023-05-01T23:35:25.026Z,99679.13
2023-05-01T23:37:52.993Z,99728.88
2023-05-01T23:40:19.929Z,99735.50
2023-05-01T23:42:47.388Z,99696.69
2023-05-01T23:45:14.237Z,99581.00
2023-05-01T23:47:43.227Z,99729.31
2023-05-01T23:50:10.164Z,99668.31
2023-05-01T23:52:37.262Z,99705.06
2023-05-01T23:55:04.202Z,99676.47
2023-05-01T23:57:30.977Z,99658.19
2023-05-01T23:59:57.876Z,99743.09
